地図

経路データ

SID SEASON NUMBER BASIN SUBBASIN NAME ISO_TIME NATURE LAT LON WMO_WIND WMO_PRES WMO_AGENCY TRACK_TYPE DIST2LAND LANDFALL IFLAG USA_AGENCY USA_ATCF_ID USA_LAT USA_LON USA_RECORD USA_STATUS USA_WIND USA_PRES USA_SSHS USA_R34_NE USA_R34_SE USA_R34_SW USA_R34_NW USA_R50_NE USA_R50_SE USA_R50_SW USA_R50_NW USA_R64_NE USA_R64_SE USA_R64_SW USA_R64_NW USA_POCI USA_ROCI USA_RMW USA_EYE TOKYO_LAT TOKYO_LON TOKYO_GRADE TOKYO_WIND TOKYO_PRES TOKYO_R50_DIR TOKYO_R50_LONG TOKYO_R50_SHORT TOKYO_R30_DIR TOKYO_R30_LONG TOKYO_R30_SHORT TOKYO_LAND CMA_LAT CMA_LON CMA_CAT CMA_WIND CMA_PRES HKO_LAT HKO_LON HKO_CAT HKO_WIND HKO_PRES NEWDELHI_LAT NEWDELHI_LON NEWDELHI_GRADE NEWDELHI_WIND NEWDELHI_PRES NEWDELHI_CI NEWDELHI_DP NEWDELHI_POCI REUNION_LAT REUNION_LON REUNION_TYPE REUNION_WIND REUNION_PRES REUNION_TNUM REUNION_CI REUNION_RMW REUNION_R34_NE REUNION_R34_SE REUNION_R34_SW REUNION_R34_NW REUNION_R50_NE REUNION_R50_SE REUNION_R50_SW REUNION_R50_NW REUNION_R64_NE REUNION_R64_SE REUNION_R64_SW REUNION_R64_NW BOM_LAT BOM_LON BOM_TYPE BOM_WIND BOM_PRES BOM_TNUM BOM_CI BOM_RMW BOM_R34_NE BOM_R34_SE BOM_R34_SW BOM_R34_NW BOM_R50_NE BOM_R50_SE BOM_R50_SW BOM_R50_NW BOM_R64_NE BOM_R64_SE BOM_R64_SW BOM_R64_NW BOM_ROCI BOM_POCI BOM_EYE BOM_POS_METHOD BOM_PRES_METHOD NADI_LAT NADI_LON NADI_CAT NADI_WIND NADI_PRES WELLINGTON_LAT WELLINGTON_LON WELLINGTON_WIND WELLINGTON_PRES DS824_LAT DS824_LON DS824_STAGE DS824_WIND DS824_PRES TD9636_LAT TD9636_LON TD9636_STAGE TD9636_WIND TD9636_PRES TD9635_LAT TD9635_LON TD9635_WIND TD9635_PRES TD9635_ROCI NEUMANN_LAT NEUMANN_LON NEUMANN_CLASS NEUMANN_WIND NEUMANN_PRES MLC_LAT MLC_LON MLC_CLASS MLC_WIND MLC_PRES USA_GUST BOM_GUST BOM_GUST_PER REUNION_GUST REUNION_GUST_PER USA_SEAHGT USA_SEARAD_NE USA_SEARAD_SE USA_SEARAD_SW USA_SEARAD_NW STORM_SPEED STORM_DIR
1960211N15115 1960 42 WP MM NOT_NAMED 1960-07-29 06:00:00 TS 14.5000 114.500 main 564 510 __O___________ -1 14.5000 114.500 0 17 1000 10 264
1960211N15115 1960 42 WP MM NOT_NAMED 1960-07-29 09:00:00 TS 14.4452 113.992 main 510 456 __P___________ -1 14.4452 113.992 0 17 1000 10 264
1960211N15115 1960 42 WP MM NOT_NAMED 1960-07-29 12:00:00 TS 14.4000 113.500 main 456 413 __O___________ -1 14.4000 113.500 0 17 1000 9 266
1960211N15115 1960 42 WP MM NOT_NAMED 1960-07-29 15:00:00 TS 14.3774 113.035 main 403 360 __P___________ -1 14.3774 113.035 0 18 1000 9 270
1960211N15115 1960 42 WP MM NOT_NAMED 1960-07-29 18:00:00 TS 14.4000 112.600 main 360 319 __O___________ -1 14.4000 112.600 0 19 1000 9 276
1960211N15115 1960 42 WP MM NOT_NAMED 1960-07-29 21:00:00 TS 14.4700 112.163 main 319 280 __P___________ -1 14.4700 112.163 0 19 1000 8 284
1960211N15115 1960 42 WP MM NOT_NAMED 1960-07-30 00:00:00 TS 14.6000 111.800 main 280 263 __O___________ -1 14.6000 111.800 0 19 1000 7 295
1960211N15115 1960 42 WP MM NOT_NAMED 1960-07-30 03:00:00 TS 14.7549 111.540 main 257 248 __P___________ -1 14.7549 111.540 0 18 1000 6 316
1960211N15115 1960 42 WP MM NOT_NAMED 1960-07-30 06:00:00 TS 15.0000 111.400 main 249 249 __O___________ -1 15.0000 111.400 0 17 1000 7 344
1960211N15115 1960 42 WP MM NOT_NAMED 1960-07-30 09:00:00 TS 15.3775 111.362 main 259 259 __P___________ -1 15.3775 111.362 0 17 1000 8 1
1960211N15115 1960 42 WP MM NOT_NAMED 1960-07-30 12:00:00 TS 15.8000 111.400 main 275 275 __O___________ -1 15.8000 111.400 0 17 1000 8 6
1960211N15115 1960 42 WP MM NOT_NAMED 1960-07-30 15:00:00 TS 16.1500 111.442 main 287 265 __P___________ -1 16.1500 111.442 0 17 1000 7 8
1960211N15115 1960 42 WP MM NOT_NAMED 1960-07-30 18:00:00 TS 16.5000 111.500 main 265 231 __O___________ -1 16.5000 111.500 0 17 1000 8 8
1960211N15115 1960 42 WP MM NOT_NAMED 1960-07-30 21:00:00 TS 16.9075 111.543 main 231 201 __P___________ -1 16.9075 111.543 0 20 999 8 7
1960211N15115 1960 42 WP MM NOT_NAMED 1960-07-31 00:00:00 TS 17.3000 111.600 main 201 184 __O___________ -1 17.3000 111.600 1 23 998 7 11
1960211N15115 1960 42 WP MM NOT_NAMED 1960-07-31 03:00:00 TS 17.6150 111.693 main 184 169 __P___________ -1 17.6150 111.693 1 23 998 6 18
1960211N15115 1960 42 WP MM NOT_NAMED 1960-07-31 06:00:00 TS 17.9000 111.800 main 170 157 __O___________ -1 17.9000 111.800 1 23 998 6 18
1960211N15115 1960 42 WP MM NOT_NAMED 1960-07-31 09:00:00 TS 18.2075 111.893 main 162 152 __P___________ -1 18.2075 111.893 1 23 998 6 18
1960211N15115 1960 42 WP MM NOT_NAMED 1960-07-31 12:00:00 TS 18.5000 112.000 main 157 146 __O___________ -1 18.5000 112.000 1 23 998 6 23
1960211N15115 1960 42 WP MM NOT_NAMED 1960-07-31 15:00:00 TS 18.7650 112.135 main 146 146 __P___________ -1 18.7650 112.135 1 23 998 6 30
1960211N15115 1960 42 WP MM NOT_NAMED 1960-07-31 18:00:00 TS 19.0000 112.300 main 152 152 __O___________ -1 19.0000 112.300 1 23 998 6 38
1960211N15115 1960 42 WP MM NOT_NAMED 1960-07-31 21:00:00 TS 19.2075 112.507 main 163 163 __P___________ -1 19.2075 112.507 1 23 998 6 43
1960211N15115 1960 42 WP MM NOT_NAMED 1960-08-01 00:00:00 TS 19.4000 112.700 main 179 178 __O___________ -1 19.4000 112.700 1 23 998 5 38
1960211N15115 1960 42 WP MM NOT_NAMED 1960-08-01 03:00:00 TS 19.6000 112.830 main 188 188 __P___________ -1 19.6000 112.830 1 23 998 4 25
1960211N15115 1960 42 WP MM NOT_NAMED 1960-08-01 06:00:00 TS 19.8000 112.900 main 200 200 __O___________ -1 19.8000 112.900 1 23 998 4 12
1960211N15115 1960 42 WP MM NOT_NAMED 1960-08-01 09:00:00 TS 20.0075 112.923 main 200 178 __P___________ -1 20.0075 112.923 1 26 996 4 0
1960211N15115 1960 42 WP MM NOT_NAMED 1960-08-01 12:00:00 TS 20.2000 112.900 main 178 168 __O___________ -1 20.2000 112.900 1 29 995 4 352
1960211N15115 1960 42 WP MM NOT_NAMED 1960-08-01 15:00:00 TS 20.3575 112.865 main 158 143 __P___________ -1 20.3575 112.865 1 29 995 3 343
1960211N15115 1960 42 WP MM NOT_NAMED 1960-08-01 18:00:00 TS 20.5000 112.800 main 143 129 __O___________ -1 20.5000 112.800 1 29 995 3 334
1960211N15115 1960 42 WP MM NOT_NAMED 1960-08-01 21:00:00 TS 20.6500 112.715 main 129 105 __P___________ -1 20.6500 112.715 1 29 995 4 329
1960211N15115 1960 42 WP MM NOT_NAMED 1960-08-02 00:00:00 TS 20.8000 112.600 main 105 91 __O___________ -1 20.8000 112.600 1 29 995 4 321
1960211N15115 1960 42 WP MM NOT_NAMED 1960-08-02 03:00:00 TS 20.9500 112.457 main 80 67 __P___________ -1 20.9500 112.457 1 29 995 4 317
1960211N15115 1960 42 WP MM NOT_NAMED 1960-08-02 06:00:00 TS 21.1000 112.300 main 67 55 __O___________ -1 21.1000 112.300 1 29 995 4 317
1960211N15115 1960 42 WP MM NOT_NAMED 1960-08-02 09:00:00 TS 21.2424 112.165 main 55 30 __P___________ -1 21.2424 112.165 1 26 995 4 317
1960211N15115 1960 42 WP MM NOT_NAMED 1960-08-02 12:00:00 TS 21.4000 112.000 main 30 0 __O___________ -1 21.4000 112.000 1 23 995 5 315
1960211N15115 1960 42 WP MM NOT_NAMED 1960-08-02 15:00:00 TS 21.5848 111.795 main 0 0 __P___________ -1 21.5848 111.795 1 21 996 6 311
1960211N15115 1960 42 WP MM NOT_NAMED 1960-08-02 18:00:00 TS 21.8000 111.500 main 0 0 __O___________ -1 21.8000 111.500 0 19 998 8 302
1960211N15115 1960 42 WP MM NOT_NAMED 1960-08-02 21:00:00 TS 22.0278 111.043 main 0 0 __P___________ -1 22.0278 111.043 0 18 1000 10 301
1960211N15115 1960 42 WP MM NOT_NAMED 1960-08-03 00:00:00 TS 22.3000 110.600 main 0 0 __O___________ -1 22.3000 110.600 0 17 1002 9 313
1960211N15115 1960 42 WP MM NOT_NAMED 1960-08-03 03:00:00 TS 22.6323 110.340 main 0 0 __P___________ -1 22.6323 110.340 0 17 1002 8 332
1960211N15115 1960 42 WP MM NOT_NAMED 1960-08-03 06:00:00 TS 23.0000 110.200 main 0 __O___________ -1 23.0000 110.200 0 17 1003 8 341

デジタル台風データ・検索

IBTrACS Databaseについて

本データベースは、米国NOAAが公開する1842年以降の世界の熱帯低気圧のベストトラックデータアーカイブInternational Best Track Archive for Climate Stewardship (IBTrACS)を、ウェブで閲覧しやすい形式に変換したものです。

最終更新日:2021-12-06